NH94 weather

Spring Creek Heliport
Milford, New Hampshire, United States

Public forecast

Using degrees Fahrenheit for public forecast. Weather courtesy of forecast.io.

METAR (pilot weather report)

Closest report is Boire Field, 7.7 nm (14.3 km) ESE. Retrieved 2019/09/23 16:56 UTC (27 minutes ago):

KASH 231656Z VRB06G17KT 10SM CLR 31/17 A2976 RMK AO2 SLP080 T03110167

TAF (pilot weather forecast)

Forecast is more than 6 hours old.

Closest forecast is Manchester-Boston Regional Airport, 13.3 nm (24.7 km) NE. Retrieved 2019/09/23 06:45 UTC (11 hours ago):

TAF KMHT 230541Z 2306/2406 20005KT P6SM FEW250 FM231600 22008G16KT P6SM BKN090 FM240000 22005KT P6SM -SHRA BKN035